Aviation Digital Data Service (ADDS)

Output produced by METARs form (0821 UTC 20 March 2019)
found at http://www.aviationweather.gov/metar/data/
 
Forecast for: UTST (TERMEZ , UZ)
Text: TAF UTST 200500Z 2006/2106 23010G20KT 6000 BKN050CB BKN100
Forecast period: 0600 UTC 20 March 2019 to 0600 UTC 21 March 2019
Forecast type: FROM: standard forecast or significant change
Winds: from the SW (230 degrees) at 12 MPH (10 knots; 5.1 m/s)
gusting to 23 MPH (20 knots; 10.3 m/s)
Visibility: 4 miles (6 km)
Ceiling: 5000 feet AGL
Clouds: broken clouds at 5000 feet AGL
broken clouds at 10000 feet AGL
Weather: no significant weather forecast for this period
Text: TEMPO 2006/2015 26017G27KT 3000 -TSRA BR BKN006 OVC040CB
Forecast period: 0600 to 1500 UTC 20 March 2019
Forecast type: TEMPORARY: The following changes expected for less than half the time period
Winds: from the W (260 degrees) at 20 MPH (17 knots; 8.7 m/s)
gusting to 31 MPH (27 knots; 13.9 m/s)
Visibility: 1.86 miles (2.99 km)
Ceiling: 600 feet AGL
Clouds: broken clouds at 600 feet AGL
overcast cloud deck at 4000 feet AGL
Weather: -TSRA BR  (light rain associated with thunderstorm(s), mist)